createdAt,value
2019-04-22T00:01:50.352Z,99.10
2019-04-22T00:04:33.319Z,96.90
2019-04-22T00:07:15.638Z,97.40
2019-04-22T00:09:53.202Z,97.40
2019-04-22T00:12:19.849Z,98.00
2019-04-22T00:14:48.342Z,98.40
2019-04-22T00:17:27.680Z,99.60
2019-04-22T00:20:02.986Z,98.30
2019-04-22T00:24:51.281Z,97.50
2019-04-22T00:27:28.116Z,98.30
2019-04-22T00:30:10.625Z,98.40
2019-04-22T00:32:42.085Z,98.20
2019-04-22T00:35:12.983Z,98.30
2019-04-22T00:37:49.235Z,99.90
2019-04-22T00:40:25.351Z,98.60
2019-04-22T00:42:53.318Z,99.80
2019-04-22T00:45:40.463Z,99.90
2019-04-22T00:47:55.170Z,99.90
2019-04-22T00:50:23.535Z,99.90
2019-04-22T00:52:59.965Z,99.90
2019-04-22T00:55:24.742Z,99.90
2019-04-22T00:58:02.548Z,99.90
2019-04-22T01:00:31.103Z,99.90
2019-04-22T01:03:07.417Z,99.90
2019-04-22T01:05:34.506Z,99.90
2019-04-22T01:08:09.685Z,99.90
2019-04-22T01:10:31.743Z,99.90
2019-04-22T01:13:05.585Z,99.90
2019-04-22T01:15:43.282Z,99.90
2019-04-22T01:18:02.193Z,99.90
2019-04-22T01:23:05.277Z,99.90
2019-04-22T01:25:37.482Z,99.90
2019-04-22T01:28:01.364Z,99.90
2019-04-22T01:30:30.404Z,99.90
2019-04-22T01:32:54.213Z,99.90
2019-04-22T01:35:36.074Z,99.90
2019-04-22T01:38:07.956Z,99.90
2019-04-22T01:40:53.913Z,99.90
2019-04-22T01:43:30.017Z,99.90
2019-04-22T01:45:57.434Z,99.90
2019-04-22T01:48:26.824Z,99.90
2019-04-22T01:50:52.364Z,99.90
2019-04-22T01:53:29.765Z,99.90
2019-04-22T01:56:02.006Z,99.90
2019-04-22T01:58:24.883Z,99.90
2019-04-22T02:01:14.728Z,99.90
2019-04-22T02:03:38.376Z,99.90
2019-04-22T02:05:58.819Z,99.90
2019-04-22T02:08:39.351Z,99.90
2019-04-22T02:11:00.748Z,99.90
2019-04-22T02:13:38.285Z,99.90
2019-04-22T02:16:06.952Z,99.90
2019-04-22T02:18:42.721Z,99.90
2019-04-22T02:21:09.379Z,99.90
2019-04-22T02:26:15.560Z,99.90
2019-04-22T02:28:42.743Z,99.90
2019-04-22T02:36:27.941Z,99.90
2019-04-22T02:38:59.840Z,99.90
2019-04-22T02:41:26.092Z,99.90
2019-04-22T02:49:01.530Z,99.90
2019-04-22T02:51:24.351Z,99.90
2019-04-22T02:56:33.904Z,99.90
2019-04-22T02:59:08.541Z,99.90
2019-04-22T03:04:06.823Z,99.90
2019-04-22T03:09:07.525Z,99.90
2019-04-22T03:11:34.130Z,99.90
2019-04-22T03:19:22.805Z,99.90
2019-04-22T03:26:43.840Z,99.90
2019-04-22T03:29:11.352Z,99.90
2019-04-22T03:37:20.557Z,99.90
2019-04-22T03:49:45.388Z,99.90
2019-04-22T03:52:10.763Z,99.90
2019-04-22T03:55:00.666Z,99.90
2019-04-22T03:59:41.528Z,99.90
2019-04-22T04:02:16.205Z,99.90
2019-04-22T04:04:39.271Z,99.90
2019-04-22T04:07:20.171Z,99.90
2019-04-22T04:09:49.986Z,99.90
2019-04-22T04:12:13.851Z,99.90
2019-04-22T04:22:33.884Z,99.90
2019-04-22T04:25:19.261Z,99.90
2019-04-22T04:27:42.798Z,99.90
2019-04-22T04:30:05.999Z,99.90
2019-04-22T04:32:34.325Z,99.90
2019-04-22T04:35:14.827Z,99.90
2019-04-22T04:40:10.140Z,99.90
2019-04-22T04:47:55.372Z,99.90
2019-04-22T04:50:12.318Z,99.90
2019-04-22T04:52:50.449Z,99.90
2019-04-22T04:55:14.413Z,99.90
2019-04-22T05:00:32.030Z,99.90
2019-04-22T05:03:10.420Z,99.90
2019-04-22T05:05:12.837Z,99.90
2019-04-22T05:07:44.220Z,99.90
2019-04-22T05:10:34.871Z,99.90
2019-04-22T05:15:11.741Z,99.90
2019-04-22T05:17:55.134Z,99.90
2019-04-22T05:20:32.083Z,99.90
2019-04-22T05:22:39.758Z,99.90
2019-04-22T05:25:17.842Z,99.90
2019-04-22T05:30:23.398Z,99.90
2019-04-22T05:32:43.894Z,99.90
2019-04-22T05:35:14.237Z,99.90
2019-04-22T05:37:54.703Z,99.90
2019-04-22T05:40:20.141Z,99.90
2019-04-22T05:42:53.102Z,99.90
2019-04-22T05:45:23.027Z,99.90
2019-04-22T05:47:52.298Z,99.90
2019-04-22T05:50:18.716Z,99.90
2019-04-22T05:52:51.336Z,99.90
2019-04-22T05:55:33.970Z,99.90
2019-04-22T05:57:57.744Z,99.90
2019-04-22T06:03:08.565Z,99.90
2019-04-22T06:05:32.035Z,99.90
2019-04-22T06:08:02.357Z,99.90
2019-04-22T06:10:42.302Z,99.90
2019-04-22T06:13:01.016Z,99.90
2019-04-22T06:15:34.425Z,99.90
2019-04-22T06:18:18.862Z,99.90
2019-04-22T06:20:53.845Z,99.90
2019-04-22T06:23:25.937Z,99.90
2019-04-22T06:26:10.103Z,99.90
2019-04-22T06:28:32.093Z,99.90
2019-04-22T06:30:58.323Z,99.90
2019-04-22T06:33:31.979Z,99.90
2019-04-22T06:35:58.904Z,99.90
2019-04-22T06:38:40.412Z,99.90
2019-04-22T06:41:04.252Z,99.90
2019-04-22T06:43:33.786Z,99.90
2019-04-22T06:46:02.403Z,99.90
2019-04-22T06:48:32.672Z,99.90
2019-04-22T06:51:04.236Z,99.90
2019-04-22T06:53:37.366Z,99.90
2019-04-22T06:56:04.585Z,99.90
2019-04-22T06:58:36.587Z,99.90
2019-04-22T07:01:09.531Z,99.90
2019-04-22T07:03:53.650Z,99.90
2019-04-22T07:06:17.551Z,99.90
2019-04-22T07:09:06.275Z,99.90
2019-04-22T07:11:06.178Z,99.90
2019-04-22T07:13:43.228Z,99.90
2019-04-22T07:16:20.797Z,99.90
2019-04-22T07:21:12.526Z,99.90
2019-04-22T07:23:55.635Z,99.90
2019-04-22T07:26:18.781Z,99.90
2019-04-22T07:28:50.611Z,99.90
2019-04-22T07:31:20.609Z,98.20
2019-04-22T07:33:55.510Z,98.10
2019-04-22T07:38:50.772Z,90.90
2019-04-22T07:41:27.086Z,85.00
2019-04-22T07:46:28.391Z,65.10
2019-04-22T07:49:00.041Z,61.20
2019-04-22T07:51:27.729Z,64.10
2019-04-22T07:54:01.850Z,57.50
2019-04-22T07:56:29.505Z,55.40
2019-04-22T07:59:03.723Z,56.10
2019-04-22T08:01:32.436Z,55.90
2019-04-22T08:06:47.750Z,48.90
2019-04-22T08:14:07.652Z,44.90
2019-04-22T08:16:45.174Z,47.50
2019-04-22T08:19:17.027Z,47.70
2019-04-22T08:21:45.464Z,46.30
2019-04-22T08:24:14.683Z,46.60
2019-04-22T08:26:51.956Z,46.90
2019-04-22T08:29:21.539Z,45.30
2019-04-22T08:31:49.137Z,43.60
2019-04-22T08:34:20.935Z,46.20
2019-04-22T08:37:16.309Z,48.00
2019-04-22T08:39:18.855Z,47.50
2019-04-22T08:41:51.222Z,45.00
2019-04-22T08:44:35.554Z,43.00
2019-04-22T08:47:02.367Z,44.80
2019-04-22T08:49:23.182Z,43.90
2019-04-22T08:51:56.219Z,43.10
2019-04-22T08:54:31.258Z,43.80
2019-04-22T08:56:58.225Z,43.00
2019-04-22T08:59:37.478Z,44.10
2019-04-22T09:02:09.321Z,44.10
2019-04-22T09:04:30.936Z,43.00
2019-04-22T09:07:13.022Z,42.10
2019-04-22T09:09:42.894Z,44.70
2019-04-22T09:12:07.900Z,42.40
2019-04-22T09:17:12.424Z,42.20
2019-04-22T09:19:34.085Z,42.20
2019-04-22T09:22:12.266Z,42.60
2019-04-22T09:24:40.821Z,45.10
2019-04-22T09:27:22.519Z,41.30
2019-04-22T09:29:43.236Z,40.80
2019-04-22T09:32:34.726Z,40.30
2019-04-22T09:34:47.320Z,40.40
2019-04-22T09:37:29.781Z,40.30
2019-04-22T09:39:55.348Z,41.40
2019-04-22T09:42:17.345Z,40.30
2019-04-22T09:44:53.618Z,40.20
2019-04-22T09:47:29.686Z,39.40
2019-04-22T09:49:58.118Z,39.20
2019-04-22T09:52:22.427Z,39.20
2019-04-22T09:55:00.178Z,40.20
2019-04-22T09:57:27.514Z,40.00
2019-04-22T10:00:04.414Z,41.40
2019-04-22T10:02:38.844Z,40.80
2019-04-22T10:05:07.908Z,40.70
2019-04-22T10:12:36.607Z,39.60
2019-04-22T10:15:22.992Z,39.40
2019-04-22T10:17:36.579Z,38.60
2019-04-22T10:25:10.438Z,38.50
2019-04-22T10:27:53.538Z,39.70
2019-04-22T10:30:38.738Z,40.60
2019-04-22T10:32:42.035Z,40.40
2019-04-22T10:35:17.235Z,39.40
2019-04-22T10:37:42.704Z,39.50
2019-04-22T10:40:29.181Z,39.00
2019-04-22T10:42:59.075Z,38.50
2019-04-22T10:45:30.233Z,38.40
2019-04-22T10:48:01.355Z,38.50
2019-04-22T10:50:46.421Z,38.60
2019-04-22T10:53:17.690Z,36.80
2019-04-22T10:55:49.857Z,38.00
2019-04-22T10:58:20.811Z,36.90
2019-04-22T11:00:52.058Z,37.60
2019-04-22T11:03:22.507Z,36.50
2019-04-22T11:05:53.922Z,37.20
2019-04-22T11:08:31.599Z,37.70
2019-04-22T11:11:08.992Z,38.20
2019-04-22T11:13:26.118Z,39.50
2019-04-22T11:15:55.654Z,38.60
2019-04-22T11:18:25.350Z,38.30
2019-04-22T11:20:55.740Z,38.40
2019-04-22T11:23:26.912Z,37.60
2019-04-22T11:25:57.616Z,38.10
2019-04-22T11:28:27.778Z,38.50
2019-04-22T11:30:58.557Z,39.40
2019-04-22T11:33:28.233Z,37.60
2019-04-22T11:35:57.670Z,37.30
2019-04-22T11:38:27.095Z,36.40
2019-04-22T11:40:58.166Z,36.00
2019-04-22T11:43:28.469Z,35.60
2019-04-22T11:45:59.452Z,36.40
2019-04-22T11:48:29.257Z,36.60
2019-04-22T11:50:59.990Z,35.70
2019-04-22T11:53:30.928Z,36.10
2019-04-22T11:56:00.636Z,35.90
2019-04-22T11:58:30.773Z,36.30
2019-04-22T12:01:01.166Z,36.50
2019-04-22T12:03:31.637Z,35.90
2019-04-22T12:06:02.074Z,35.80
2019-04-22T12:08:31.545Z,37.40
2019-04-22T12:11:04.371Z,34.70
2019-04-22T12:13:33.687Z,35.70
2019-04-22T12:16:03.437Z,34.50
2019-04-22T12:18:33.344Z,35.50
2019-04-22T12:21:03.598Z,35.20
2019-04-22T12:23:33.057Z,34.90
2019-04-22T12:26:08.665Z,36.10
2019-04-22T12:28:34.976Z,34.20
2019-04-22T12:31:05.726Z,36.00
2019-04-22T12:33:35.419Z,35.10
2019-04-22T12:36:08.483Z,34.60
2019-04-22T12:38:37.888Z,34.50
2019-04-22T12:41:10.373Z,35.50
2019-04-22T12:43:38.748Z,36.70
2019-04-22T12:46:08.260Z,35.10
2019-04-22T12:48:39.112Z,35.70
2019-04-22T12:51:09.216Z,36.40
2019-04-22T12:53:40.118Z,36.20
2019-04-22T12:56:10.960Z,36.30
2019-04-22T12:58:41.305Z,36.60
2019-04-22T13:01:11.005Z,37.80
2019-04-22T13:03:40.422Z,39.40
2019-04-22T13:06:10.012Z,38.20
2019-04-22T13:08:39.340Z,38.50
2019-04-22T13:11:13.060Z,38.00
2019-04-22T13:13:40.940Z,38.10
2019-04-22T13:16:10.939Z,39.00
2019-04-22T13:18:48.313Z,39.30
2019-04-22T13:21:12.911Z,40.00
2019-04-22T13:23:42.540Z,39.70
2019-04-22T13:26:12.752Z,38.40
2019-04-22T13:28:43.209Z,38.00
2019-04-22T13:31:13.870Z,37.80
2019-04-22T13:33:43.491Z,37.30
2019-04-22T13:36:12.812Z,39.10
2019-04-22T13:38:42.963Z,38.00
2019-04-22T13:41:26.151Z,37.80
2019-04-22T13:43:44.717Z,38.30
2019-04-22T13:46:14.533Z,37.90
2019-04-22T13:49:05.960Z,38.70
2019-04-22T13:51:45.217Z,38.70
2019-04-22T13:54:42.495Z,40.00
2019-04-22T13:56:37.324Z,38.60
2019-04-22T13:59:00.251Z,38.40
2019-04-22T14:01:22.754Z,38.80
2019-04-22T14:04:00.772Z,38.80
2019-04-22T14:06:31.077Z,39.30
2019-04-22T14:09:01.175Z,38.00
2019-04-22T14:11:36.622Z,38.70
2019-04-22T14:14:02.911Z,38.00
2019-04-22T14:16:33.153Z,37.90
2019-04-22T14:19:02.724Z,40.40
2019-04-22T14:21:32.647Z,38.60
2019-04-22T14:24:02.735Z,38.40
2019-04-22T14:26:47.942Z,38.90
2019-04-22T14:29:04.114Z,38.30
2019-04-22T14:31:33.607Z,38.40
2019-04-22T14:34:05.199Z,39.70
2019-04-22T14:36:35.239Z,39.70
2019-04-22T14:39:08.112Z,39.40
2019-04-22T14:41:55.433Z,38.50
2019-04-22T14:45:13.531Z,39.50
2019-04-22T14:47:11.616Z,39.40
2019-04-22T14:49:40.553Z,39.70
2019-04-22T14:52:10.783Z,39.50
2019-04-22T14:54:28.475Z,39.40
2019-04-22T14:56:44.561Z,41.30
2019-04-22T14:59:14.017Z,39.50
2019-04-22T15:01:43.646Z,39.40
2019-04-22T15:04:13.424Z,39.20
2019-04-22T15:06:45.149Z,39.60
2019-04-22T15:09:14.467Z,40.40
2019-04-22T15:11:56.991Z,39.90
2019-04-22T15:14:15.303Z,40.10
2019-04-22T15:17:22.896Z,40.50
2019-04-22T15:19:59.737Z,40.50
2019-04-22T15:22:30.685Z,43.00
2019-04-22T15:25:00.766Z,41.40
2019-04-22T15:27:31.121Z,41.30
2019-04-22T15:30:01.302Z,41.10
2019-04-22T15:32:31.681Z,40.70
2019-04-22T15:35:01.854Z,41.20
2019-04-22T15:37:33.067Z,41.10
2019-04-22T15:40:02.915Z,41.30
2019-04-22T15:42:36.137Z,41.00
2019-04-22T15:45:05.893Z,41.20
2019-04-22T15:47:34.757Z,41.60
2019-04-22T15:50:05.982Z,42.50
2019-04-22T15:52:41.991Z,41.70
2019-04-22T15:55:06.816Z,41.20
2019-04-22T15:57:38.052Z,41.40
2019-04-22T16:00:22.567Z,40.70
2019-04-22T16:02:39.461Z,41.00
2019-04-22T16:05:09.123Z,41.80
2019-04-22T16:07:40.072Z,41.50
2019-04-22T16:10:10.181Z,40.80
2019-04-22T16:12:51.696Z,41.20
2019-04-22T16:15:11.667Z,41.30
2019-04-22T16:17:42.490Z,41.40
2019-04-22T16:20:13.242Z,41.60
2019-04-22T16:23:01.452Z,45.20
2019-04-22T16:26:05.321Z,42.40
2019-04-22T16:28:35.366Z,41.40
2019-04-22T16:31:05.115Z,41.90
2019-04-22T16:33:36.555Z,41.70
2019-04-22T16:36:07.086Z,40.90
2019-04-22T16:38:37.311Z,41.30
2019-04-22T16:41:06.821Z,41.40
2019-04-22T16:43:38.382Z,40.70
2019-04-22T16:46:08.024Z,40.60
2019-04-22T16:48:38.013Z,41.30
2019-04-22T16:51:07.500Z,40.50
2019-04-22T16:53:37.069Z,40.60
2019-04-22T16:56:10.841Z,41.30
2019-04-22T16:58:40.996Z,40.70
2019-04-22T17:01:30.473Z,40.50
2019-04-22T17:04:18.998Z,40.90
2019-04-22T17:06:49.699Z,42.30
2019-04-22T17:09:21.511Z,41.60
2019-04-22T17:11:52.180Z,41.70
2019-04-22T17:14:27.234Z,42.00
2019-04-22T17:16:52.938Z,42.00
2019-04-22T17:19:23.641Z,41.90
2019-04-22T17:21:53.504Z,42.00
2019-04-22T17:24:23.669Z,41.40
2019-04-22T17:26:54.608Z,41.10
2019-04-22T17:29:24.153Z,41.20
2019-04-22T17:32:01.661Z,41.00
2019-04-22T17:34:25.492Z,41.10
2019-04-22T17:36:55.306Z,41.40
2019-04-22T17:39:40.165Z,41.50
2019-04-22T17:42:15.706Z,42.30
2019-04-22T17:44:58.804Z,42.30
2019-04-22T17:47:29.039Z,43.20
2019-04-22T17:50:13.260Z,42.40
2019-04-22T17:52:42.583Z,43.10
2019-04-22T17:55:12.680Z,43.20
2019-04-22T17:57:40.973Z,43.20
2019-04-22T18:00:14.380Z,44.10
2019-04-22T18:02:45.626Z,43.00
2019-04-22T18:05:03.819Z,42.80
2019-04-22T18:07:52.205Z,42.70
2019-04-22T18:10:32.440Z,42.60
2019-04-22T18:13:01.865Z,42.20
2019-04-22T18:15:23.812Z,43.20
2019-04-22T18:18:01.077Z,43.00
2019-04-22T18:20:25.473Z,44.40
2019-04-22T18:22:52.259Z,43.60
2019-04-22T18:25:25.189Z,43.30
2019-04-22T18:28:15.259Z,43.80
2019-04-22T18:30:28.821Z,43.70
2019-04-22T18:33:07.148Z,44.30
2019-04-22T18:35:35.233Z,44.30
2019-04-22T18:38:26.623Z,44.00
2019-04-22T18:40:38.433Z,44.30
2019-04-22T18:43:11.612Z,44.60
2019-04-22T18:45:50.518Z,44.50
2019-04-22T18:48:06.468Z,44.50
2019-04-22T18:51:00.116Z,44.80
2019-04-22T18:53:52.001Z,44.70
2019-04-22T18:56:22.058Z,44.80
2019-04-22T18:58:44.910Z,44.90
2019-04-22T19:01:05.937Z,44.80
2019-04-22T19:03:47.621Z,45.70
2019-04-22T19:06:44.980Z,45.30
2019-04-22T19:09:10.667Z,45.50
2019-04-22T19:11:44.826Z,46.40
2019-04-22T19:14:05.990Z,46.10
2019-04-22T19:16:39.820Z,46.20
2019-04-22T19:19:26.069Z,45.90
2019-04-22T19:21:43.317Z,46.40
2019-04-22T19:24:09.617Z,46.20
2019-04-22T19:26:59.133Z,46.80
2019-04-22T19:29:16.868Z,47.10
2019-04-22T19:31:45.533Z,47.10
2019-04-22T19:34:16.625Z,47.10
2019-04-22T19:36:51.231Z,47.00
2019-04-22T19:39:17.345Z,47.30
2019-04-22T19:41:55.799Z,47.60
2019-04-22T19:44:22.846Z,47.60
2019-04-22T19:47:09.022Z,48.60
2019-04-22T19:49:33.045Z,48.20
2019-04-22T19:52:05.149Z,48.40
2019-04-22T19:54:26.164Z,48.60
2019-04-22T19:56:50.968Z,49.30
2019-04-22T19:59:41.636Z,49.70
2019-04-22T20:02:29.066Z,49.50
2019-04-22T20:05:24.521Z,49.60
2019-04-22T20:07:38.119Z,50.20
2019-04-22T20:10:19.170Z,50.10
2019-04-22T20:12:42.528Z,51.20
2019-04-22T20:15:14.227Z,51.70
2019-04-22T20:18:11.657Z,50.30
2019-04-22T20:20:24.588Z,50.80
2019-04-22T20:22:48.077Z,50.80
2019-04-22T20:25:11.020Z,50.90
2019-04-22T20:27:55.817Z,50.80
2019-04-22T20:30:28.275Z,50.50
2019-04-22T20:32:54.213Z,50.50
2019-04-22T20:35:33.024Z,50.40
2019-04-22T20:37:57.930Z,50.70
2019-04-22T20:40:38.294Z,51.10
2019-04-22T20:43:09.130Z,51.00
2019-04-22T20:45:34.878Z,51.10
2019-04-22T20:47:53.873Z,50.90
2019-04-22T20:50:35.867Z,50.30
2019-04-22T20:53:11.699Z,50.30
2019-04-22T20:55:36.880Z,50.30
2019-04-22T20:58:13.571Z,50.40
2019-04-22T21:00:36.976Z,50.50
2019-04-22T21:03:05.226Z,50.60
2019-04-22T21:05:38.498Z,50.80
2019-04-22T21:08:19.002Z,50.70
2019-04-22T21:10:42.545Z,51.20
2019-04-22T21:13:13.874Z,51.10
2019-04-22T21:15:54.993Z,51.80
2019-04-22T21:18:13.461Z,51.40
2019-04-22T21:20:59.212Z,51.80
2019-04-22T21:23:21.363Z,51.40
2019-04-22T21:25:41.286Z,52.10
2019-04-22T21:28:31.358Z,51.70
2019-04-22T21:30:53.962Z,51.60
2019-04-22T21:33:18.144Z,51.80
2019-04-22T21:38:31.073Z,52.50
2019-04-22T21:40:54.799Z,53.10
2019-04-22T21:43:29.954Z,52.70
2019-04-22T21:46:04.171Z,52.50
2019-04-22T21:48:36.960Z,52.30
2019-04-22T21:51:04.829Z,52.50
2019-04-22T21:53:52.146Z,52.30
2019-04-22T21:56:31.765Z,52.00
2019-04-22T21:58:51.147Z,52.00
2019-04-22T22:01:50.059Z,51.70
2019-04-22T22:04:18.820Z,52.00
2019-04-22T22:06:39.694Z,51.80
2019-04-22T22:09:22.519Z,52.10
2019-04-22T22:11:45.563Z,52.90
2019-04-22T22:14:17.593Z,52.30
2019-04-22T22:16:43.449Z,52.30
2019-04-22T22:19:25.608Z,52.50
2019-04-22T22:22:02.414Z,52.50
2019-04-22T22:24:32.530Z,52.90
2019-04-22T22:26:57.084Z,52.60
2019-04-22T22:29:36.866Z,52.70
2019-04-22T22:32:00.136Z,52.80
2019-04-22T22:34:26.800Z,52.60
2019-04-22T22:36:52.956Z,52.60
2019-04-22T22:39:24.896Z,53.00
2019-04-22T22:41:43.855Z,52.90
2019-04-22T22:44:21.126Z,53.10
2019-04-22T22:47:03.600Z,53.20
2019-04-22T22:49:54.619Z,53.10
2019-04-22T22:52:34.431Z,52.80
2019-04-22T22:54:39.225Z,52.90
2019-04-22T22:57:17.150Z,53.60
2019-04-22T22:59:40.284Z,53.20
2019-04-22T23:02:06.168Z,53.30
2019-04-22T23:04:45.942Z,53.40
2019-04-22T23:07:17.266Z,54.00
2019-04-22T23:09:47.235Z,54.20
2019-04-22T23:12:31.681Z,54.00
2019-04-22T23:14:49.543Z,54.40
2019-04-22T23:17:05.167Z,54.80
2019-04-22T23:19:32.514Z,54.60
2019-04-22T23:22:08.040Z,54.40
2019-04-22T23:24:54.361Z,55.70
2019-04-22T23:27:32.364Z,55.40
2019-04-22T23:30:15.882Z,55.70
2019-04-22T23:32:45.463Z,55.30
2019-04-22T23:35:36.981Z,57.20
2019-04-22T23:38:12.152Z,56.20
2019-04-22T23:40:42.919Z,57.10
2019-04-22T23:43:19.281Z,56.70
2019-04-22T23:45:50.259Z,56.50
2019-04-22T23:48:16.785Z,56.50
2019-04-22T23:50:57.442Z,57.00
2019-04-22T23:53:55.858Z,56.90
2019-04-22T23:56:06.091Z,57.60
2019-04-22T23:58:52.417Z,56.90
